createdAt,value
2023-05-05T00:01:42.661Z,10.68
2023-05-05T00:03:44.458Z,10.68
2023-05-05T00:05:47.400Z,10.61
2023-05-05T00:07:48.951Z,10.51
2023-05-05T00:09:50.626Z,10.50
2023-05-05T00:11:52.263Z,10.56
2023-05-05T00:13:53.938Z,10.60
2023-05-05T00:15:55.595Z,10.67
2023-05-05T00:17:57.164Z,10.66
2023-05-05T00:19:59.572Z,10.63
2023-05-05T00:22:01.005Z,10.64
2023-05-05T00:24:02.694Z,10.56
2023-05-05T00:26:04.334Z,10.57
2023-05-05T00:28:05.915Z,10.60
2023-05-05T00:30:08.395Z,10.71
2023-05-05T00:32:10.102Z,10.73
2023-05-05T00:34:11.615Z,10.75
2023-05-05T00:36:14.843Z,10.73
2023-05-05T00:38:16.670Z,10.78
2023-05-05T00:40:18.712Z,10.83
2023-05-05T00:42:20.258Z,10.68
2023-05-05T00:44:38.077Z,10.72
2023-05-05T00:46:41.796Z,10.77
2023-05-05T00:48:43.906Z,10.74
2023-05-05T00:50:45.429Z,10.80
2023-05-05T00:52:46.980Z,10.68
2023-05-05T00:54:48.725Z,10.68
2023-05-05T00:56:51.637Z,10.66
2023-05-05T00:58:53.656Z,10.66
2023-05-05T01:00:55.333Z,10.70
2023-05-05T01:02:57.343Z,10.68
2023-05-05T01:04:59.185Z,10.68
2023-05-05T01:07:28.554Z,10.74
2023-05-05T01:09:51.912Z,10.74
2023-05-05T01:12:47.531Z,10.74
2023-05-05T01:15:11.037Z,10.65
2023-05-05T01:17:22.115Z,10.62
2023-05-05T01:19:55.370Z,10.72
2023-05-05T01:22:00.590Z,10.50
2023-05-05T01:24:10.970Z,10.62
2023-05-05T01:26:18.333Z,10.60
2023-05-05T01:28:29.084Z,10.62
2023-05-05T01:30:49.627Z,10.56
2023-05-05T01:32:57.700Z,10.46
2023-05-05T01:35:09.922Z,10.49
2023-05-05T01:37:18.218Z,10.52
2023-05-05T01:39:27.209Z,10.50
2023-05-05T01:41:37.264Z,10.52
2023-05-05T01:43:43.817Z,10.46
2023-05-05T01:45:47.381Z,10.41
2023-05-05T01:47:49.666Z,10.43
2023-05-05T01:49:52.846Z,10.46
2023-05-05T01:51:56.000Z,10.51
2023-05-05T01:54:00.430Z,10.57
2023-05-05T01:56:02.969Z,10.52
2023-05-05T01:58:07.064Z,10.53
2023-05-05T02:00:10.164Z,10.51
2023-05-05T02:02:22.644Z,10.51
2023-05-05T02:04:28.089Z,10.55
2023-05-05T02:06:34.254Z,10.63
2023-05-05T02:08:37.893Z,10.65
2023-05-05T02:10:43.417Z,10.47
2023-05-05T02:12:47.211Z,10.28
2023-05-05T02:14:50.135Z,10.29
2023-05-05T02:16:54.929Z,10.27
2023-05-05T02:18:58.352Z,10.32
2023-05-05T02:20:59.954Z,10.38
2023-05-05T02:23:01.983Z,10.35
2023-05-05T02:25:03.923Z,10.39
2023-05-05T02:27:07.852Z,10.40
2023-05-05T02:29:16.367Z,10.42
2023-05-05T02:31:21.361Z,10.45
2023-05-05T02:33:25.358Z,10.42
2023-05-05T02:35:35.223Z,10.43
2023-05-05T02:37:39.839Z,10.41
2023-05-05T02:39:58.232Z,10.37
2023-05-05T02:42:04.088Z,10.33
2023-05-05T02:44:08.426Z,10.27
2023-05-05T02:46:10.972Z,10.23
2023-05-05T02:48:14.593Z,10.20
2023-05-05T02:50:17.044Z,10.16
2023-05-05T02:52:27.788Z,10.11
2023-05-05T02:54:31.495Z,10.07
2023-05-05T02:56:50.920Z,9.99
2023-05-05T02:58:59.908Z,9.98
2023-05-05T03:01:11.951Z,10.06
2023-05-05T03:03:30.665Z,10.09
2023-05-05T03:05:41.422Z,10.12
2023-05-05T03:08:03.734Z,10.07
2023-05-05T03:10:12.269Z,9.98
2023-05-05T03:12:22.321Z,9.91
2023-05-05T03:14:41.458Z,9.93
2023-05-05T03:16:46.591Z,9.86
2023-05-05T03:18:50.990Z,9.88
2023-05-05T03:20:53.336Z,9.76
2023-05-05T03:22:55.485Z,9.86
2023-05-05T03:24:57.559Z,9.87
2023-05-05T03:26:59.609Z,9.89
2023-05-05T03:29:07.595Z,9.90
2023-05-05T03:31:13.001Z,9.88
2023-05-05T03:33:16.152Z,9.94
2023-05-05T03:35:18.164Z,9.95
2023-05-05T03:37:19.702Z,10.24
2023-05-05T03:39:21.441Z,10.32
2023-05-05T03:41:24.910Z,10.34
2023-05-05T03:43:27.255Z,10.44
2023-05-05T03:45:29.199Z,10.47
2023-05-05T03:47:30.957Z,10.45
2023-05-05T03:49:33.077Z,10.37
2023-05-05T03:51:36.192Z,10.35
2023-05-05T03:53:37.782Z,10.35
2023-05-05T03:55:41.712Z,10.36
2023-05-05T03:57:43.258Z,10.33
2023-05-05T03:59:44.829Z,10.30
2023-05-05T04:01:48.931Z,10.17
2023-05-05T04:03:50.878Z,10.05
2023-05-05T04:05:52.934Z,10.05
2023-05-05T04:07:56.907Z,9.93
2023-05-05T04:09:59.481Z,9.98
2023-05-05T04:12:01.493Z,9.80
2023-05-05T04:14:03.573Z,9.91
2023-05-05T04:16:05.953Z,9.89
2023-05-05T04:18:07.644Z,9.95
2023-05-05T04:20:10.018Z,9.94
2023-05-05T04:22:11.919Z,9.91
2023-05-05T04:24:13.788Z,9.86
2023-05-05T04:26:15.486Z,9.79
2023-05-05T04:28:18.152Z,9.87
2023-05-05T04:30:21.548Z,9.79
2023-05-05T04:32:23.364Z,9.92
2023-05-05T04:34:25.114Z,9.94
2023-05-05T04:36:27.378Z,9.99
2023-05-05T04:38:29.313Z,10.10
2023-05-05T04:40:31.243Z,10.14
2023-05-05T04:42:33.555Z,10.18
2023-05-05T04:44:36.146Z,10.19
2023-05-05T04:46:38.991Z,10.29
2023-05-05T04:48:42.181Z,10.31
2023-05-05T04:50:44.579Z,10.35
2023-05-05T04:52:46.162Z,10.42
2023-05-05T04:54:48.444Z,10.31
2023-05-05T04:56:50.276Z,10.10
2023-05-05T04:58:52.022Z,10.02
2023-05-05T05:00:53.676Z,10.02
2023-05-05T05:03:01.541Z,10.10
2023-05-05T05:05:04.123Z,10.09
2023-05-05T05:07:05.658Z,10.10
2023-05-05T05:09:07.260Z,10.20
2023-05-05T05:11:09.591Z,10.33
2023-05-05T05:13:12.709Z,10.41
2023-05-05T05:15:14.724Z,10.55
2023-05-05T05:17:17.127Z,10.66
2023-05-05T05:19:18.928Z,10.79
2023-05-05T05:21:20.963Z,10.94
2023-05-05T05:23:22.754Z,11.15
2023-05-05T05:25:24.505Z,11.26
2023-05-05T05:27:26.224Z,11.43
2023-05-05T05:29:29.332Z,11.56
2023-05-05T05:31:34.228Z,11.62
2023-05-05T05:33:36.418Z,11.78
2023-05-05T05:35:39.451Z,11.99
2023-05-05T05:37:41.258Z,12.16
2023-05-05T05:39:43.807Z,12.40
2023-05-05T05:41:46.327Z,12.62
2023-05-05T05:43:48.578Z,12.82
2023-05-05T05:45:50.298Z,13.03
2023-05-05T05:47:52.055Z,13.24
2023-05-05T05:49:53.691Z,13.50
2023-05-05T05:51:55.448Z,13.76
2023-05-05T05:53:58.966Z,13.97
2023-05-05T05:56:01.419Z,14.14
2023-05-05T05:58:03.092Z,14.14
2023-05-05T06:00:06.307Z,14.14
2023-05-05T06:02:13.555Z,14.14
2023-05-05T06:04:15.553Z,14.05
2023-05-05T06:06:17.284Z,14.03
2023-05-05T06:08:19.258Z,14.00
2023-05-05T06:10:28.375Z,14.11
2023-05-05T06:12:43.944Z,14.26
2023-05-05T06:14:45.690Z,14.50
2023-05-05T06:16:47.477Z,14.73
2023-05-05T06:18:53.120Z,14.75
2023-05-05T06:20:54.769Z,14.89
2023-05-05T06:23:00.780Z,14.96
2023-05-05T06:25:06.005Z,15.21
2023-05-05T06:27:08.036Z,15.37
2023-05-05T06:29:11.767Z,15.55
2023-05-05T06:31:14.217Z,15.70
2023-05-05T06:33:15.891Z,15.88
2023-05-05T06:35:17.714Z,15.86
2023-05-05T06:37:19.278Z,16.04
2023-05-05T06:39:20.987Z,16.14
2023-05-05T06:41:22.601Z,16.22
2023-05-05T06:43:24.335Z,16.32
2023-05-05T06:45:32.183Z,16.54
2023-05-05T06:47:33.928Z,16.65
2023-05-05T06:49:35.552Z,16.80
2023-05-05T06:51:37.335Z,17.00
2023-05-05T06:53:39.103Z,17.26
2023-05-05T06:55:44.442Z,17.36
2023-05-05T06:57:46.088Z,17.45
2023-05-05T06:59:48.049Z,17.47
2023-05-05T07:01:49.723Z,17.60
2023-05-05T07:03:52.229Z,17.69
2023-05-05T07:05:54.858Z,17.81
2023-05-05T07:07:57.267Z,18.01
2023-05-05T07:09:58.791Z,18.16
2023-05-05T07:12:00.800Z,18.40
2023-05-05T07:14:02.439Z,18.51
2023-05-05T07:16:04.937Z,18.60
2023-05-05T07:18:06.572Z,18.78
2023-05-05T07:20:09.446Z,18.83
2023-05-05T07:22:11.382Z,18.92
2023-05-05T07:24:13.036Z,19.14
2023-05-05T07:26:15.141Z,19.43
2023-05-05T07:28:16.850Z,19.70
2023-05-05T07:30:19.285Z,19.73
2023-05-05T07:32:21.378Z,19.52
2023-05-05T07:34:23.026Z,19.67
2023-05-05T07:36:24.555Z,19.87
2023-05-05T07:38:26.340Z,19.91
2023-05-05T07:40:27.957Z,20.12
2023-05-05T07:42:29.622Z,20.17
2023-05-05T07:44:31.640Z,20.23
2023-05-05T07:46:33.177Z,20.30
2023-05-05T07:48:34.865Z,20.53
2023-05-05T07:50:36.581Z,20.66
2023-05-05T07:52:48.314Z,20.63
2023-05-05T07:54:53.244Z,20.55
2023-05-05T07:56:54.806Z,20.70
2023-05-05T07:58:56.546Z,20.48
2023-05-05T08:00:58.185Z,20.63
2023-05-05T08:02:59.767Z,20.58
2023-05-05T08:05:01.269Z,20.64
2023-05-05T08:07:02.888Z,20.94
2023-05-05T08:09:04.675Z,21.14
2023-05-05T08:11:06.547Z,21.20
2023-05-05T08:13:08.131Z,21.28
2023-05-05T08:15:11.030Z,21.45
2023-05-05T08:17:12.951Z,21.57
2023-05-05T08:19:25.265Z,21.68
2023-05-05T08:21:31.720Z,21.82
2023-05-05T08:23:34.795Z,22.08
2023-05-05T08:25:36.412Z,22.22
2023-05-05T08:27:39.003Z,22.40
2023-05-05T08:29:40.775Z,22.56
2023-05-05T08:31:42.398Z,22.69
2023-05-05T08:33:43.916Z,22.99
2023-05-05T08:35:45.783Z,22.94
2023-05-05T08:37:47.417Z,22.93
2023-05-05T08:39:49.696Z,22.99
2023-05-05T08:41:51.858Z,23.14
2023-05-05T08:43:53.746Z,23.27
2023-05-05T08:45:56.670Z,23.49
2023-05-05T08:48:01.604Z,23.64
2023-05-05T08:50:05.815Z,23.76
2023-05-05T08:52:11.543Z,23.64
2023-05-05T08:54:20.245Z,23.72
2023-05-05T08:56:22.309Z,24.00
2023-05-05T08:58:26.925Z,24.07
2023-05-05T09:00:30.874Z,23.94
2023-05-05T09:02:32.689Z,23.96
2023-05-05T09:04:34.646Z,24.14
2023-05-05T09:06:37.178Z,23.99
2023-05-05T09:08:39.122Z,24.02
2023-05-05T09:10:41.501Z,24.05
2023-05-05T09:12:43.289Z,23.92
2023-05-05T09:14:46.808Z,23.39
2023-05-05T09:16:48.409Z,23.39
2023-05-05T09:18:50.007Z,23.61
2023-05-05T09:20:51.604Z,23.64
2023-05-05T09:22:53.350Z,23.88
2023-05-05T09:24:55.224Z,24.25
2023-05-05T09:26:59.000Z,24.44
2023-05-05T09:29:02.550Z,24.32
2023-05-05T09:31:22.482Z,23.99
2023-05-05T09:33:31.410Z,24.26
2023-05-05T09:35:55.951Z,24.40
2023-05-05T09:38:10.470Z,24.20
2023-05-05T09:40:16.668Z,24.41
2023-05-05T09:42:19.199Z,24.30
2023-05-05T09:44:41.185Z,24.33
2023-05-05T09:46:55.099Z,24.21
2023-05-05T09:48:56.935Z,24.16
2023-05-05T09:50:59.726Z,24.07
2023-05-05T09:53:02.787Z,24.28
2023-05-05T09:55:04.649Z,24.40
2023-05-05T09:57:06.520Z,24.84
2023-05-05T09:59:11.848Z,24.98
2023-05-05T10:01:23.783Z,24.74
2023-05-05T10:03:26.048Z,24.50
2023-05-05T10:05:27.700Z,24.10
2023-05-05T10:07:29.330Z,24.17
2023-05-05T10:09:32.450Z,24.26
2023-05-05T10:11:34.601Z,24.04
2023-05-05T10:13:37.941Z,24.35
2023-05-05T10:15:43.988Z,24.57
2023-05-05T10:17:57.921Z,24.47
2023-05-05T10:20:04.890Z,24.56
2023-05-05T10:22:10.950Z,24.63
2023-05-05T10:24:50.088Z,24.61
2023-05-05T10:26:53.117Z,24.47
2023-05-05T10:28:59.578Z,24.36
2023-05-05T10:31:05.757Z,24.32
2023-05-05T10:35:33.037Z,24.54
2023-05-05T10:37:37.484Z,24.33
2023-05-05T10:39:39.453Z,24.57
2023-05-05T10:41:41.374Z,24.56
2023-05-05T10:43:43.240Z,24.62
2023-05-05T10:45:44.908Z,24.79
2023-05-05T10:47:46.728Z,24.78
2023-05-05T10:49:59.758Z,24.76
2023-05-05T10:52:13.368Z,24.48
2023-05-05T10:54:39.750Z,24.24
2023-05-05T10:56:42.643Z,24.18
2023-05-05T10:58:59.217Z,24.26
2023-05-05T11:01:03.167Z,24.94
2023-05-05T11:03:21.262Z,25.34
2023-05-05T11:05:23.106Z,25.68
2023-05-05T11:07:25.870Z,26.11
2023-05-05T11:09:28.583Z,26.52
2023-05-05T11:12:02.224Z,25.14
2023-05-05T11:14:24.055Z,25.07
2023-05-05T11:16:45.695Z,25.54
2023-05-05T11:18:47.361Z,26.09
2023-05-05T11:20:52.242Z,26.29
2023-05-05T11:23:02.574Z,26.27
2023-05-05T11:25:44.468Z,25.89
2023-05-05T11:28:31.331Z,25.09
2023-05-05T11:30:33.411Z,24.88
2023-05-05T11:32:35.944Z,25.05
2023-05-05T11:34:48.848Z,25.17
2023-05-05T11:36:52.643Z,25.21
2023-05-05T11:39:19.290Z,25.43
2023-05-05T11:41:32.873Z,25.62
2023-05-05T11:43:34.520Z,25.03
2023-05-05T11:45:36.609Z,24.71
2023-05-05T11:47:38.212Z,25.12
2023-05-05T11:49:39.711Z,25.14
2023-05-05T11:51:41.421Z,24.97
2023-05-05T11:53:44.295Z,25.49
2023-05-05T11:55:45.989Z,25.61
2023-05-05T11:57:47.637Z,25.43
2023-05-05T12:00:00.648Z,25.14
2023-05-05T12:02:03.342Z,25.06
2023-05-05T12:04:05.067Z,25.17
2023-05-05T12:06:08.145Z,25.65
2023-05-05T12:08:10.254Z,25.81
2023-05-05T12:10:11.804Z,25.90
2023-05-05T12:12:14.529Z,26.03
2023-05-05T12:14:16.097Z,25.97
2023-05-05T12:16:19.360Z,26.15
2023-05-05T12:18:21.905Z,26.64
2023-05-05T12:20:33.697Z,26.68
2023-05-05T12:22:35.682Z,26.50
2023-05-05T12:24:37.227Z,26.47
2023-05-05T12:26:38.771Z,26.88
2023-05-05T12:28:47.791Z,26.63
2023-05-05T12:30:57.238Z,26.38
2023-05-05T12:33:04.086Z,26.53
2023-05-05T12:35:07.711Z,26.12
2023-05-05T12:37:09.821Z,25.74
2023-05-05T12:39:12.190Z,25.80
2023-05-05T12:41:19.413Z,25.53
2023-05-05T12:43:31.819Z,25.81
2023-05-05T12:45:33.422Z,25.72
2023-05-05T12:47:36.718Z,25.05
2023-05-05T12:49:45.832Z,25.32
2023-05-05T12:51:55.337Z,25.80
2023-05-05T12:54:07.467Z,26.03
2023-05-05T12:56:38.736Z,26.28
2023-05-05T12:58:48.508Z,26.20
2023-05-05T13:01:08.058Z,26.67
2023-05-05T13:03:20.073Z,26.86
2023-05-05T13:05:38.187Z,27.37
2023-05-05T13:07:52.031Z,28.04
2023-05-05T13:10:05.610Z,27.90
2023-05-05T13:12:16.388Z,28.22
2023-05-05T13:14:18.314Z,28.54
2023-05-05T13:16:19.888Z,27.96
2023-05-05T13:18:21.441Z,27.60
2023-05-05T13:20:23.352Z,26.96
2023-05-05T13:22:24.846Z,26.22
2023-05-05T13:24:42.050Z,25.82
2023-05-05T13:26:48.715Z,25.83
2023-05-05T13:28:50.734Z,26.18
2023-05-05T13:30:52.594Z,26.20
2023-05-05T13:32:54.055Z,26.13
2023-05-05T13:34:57.795Z,25.77
2023-05-05T13:36:59.303Z,25.31
2023-05-05T13:39:01.435Z,24.88
2023-05-05T13:41:03.587Z,24.88
2023-05-05T13:43:05.081Z,24.68
2023-05-05T13:45:07.187Z,24.75
2023-05-05T13:47:08.957Z,24.65
2023-05-05T13:49:11.070Z,24.56
2023-05-05T13:51:12.724Z,24.56
2023-05-05T13:53:14.852Z,24.40
2023-05-05T13:55:16.779Z,24.41
2023-05-05T13:57:18.326Z,24.34
2023-05-05T13:59:21.689Z,23.86
2023-05-05T14:01:23.364Z,23.57
2023-05-05T14:03:24.991Z,23.84
2023-05-05T14:05:26.731Z,24.11
2023-05-05T14:07:28.511Z,24.48
2023-05-05T14:09:30.373Z,24.73
2023-05-05T14:11:31.950Z,24.97
2023-05-05T14:13:33.502Z,25.07
2023-05-05T14:15:35.336Z,24.94
2023-05-05T14:17:37.059Z,24.69
2023-05-05T14:19:38.623Z,24.41
2023-05-05T14:21:40.165Z,24.45
2023-05-05T14:23:41.812Z,24.27
2023-05-05T14:25:43.434Z,24.18
2023-05-05T14:27:45.478Z,23.60
2023-05-05T14:29:46.903Z,23.42
2023-05-05T14:31:48.604Z,23.32
2023-05-05T14:33:50.757Z,23.18
2023-05-05T14:35:52.402Z,23.34
2023-05-05T14:37:53.864Z,23.37
2023-05-05T14:39:56.115Z,23.16
2023-05-05T14:41:57.612Z,22.83
2023-05-05T14:43:59.395Z,22.86
2023-05-05T14:46:06.351Z,22.49
2023-05-05T14:48:08.114Z,22.83
2023-05-05T14:50:10.162Z,22.48
2023-05-05T14:52:11.731Z,22.27
2023-05-05T14:54:26.980Z,22.40
2023-05-05T14:56:30.073Z,22.88
2023-05-05T14:58:31.693Z,23.68
2023-05-05T15:00:33.223Z,24.83
2023-05-05T15:02:34.888Z,26.01
2023-05-05T15:04:36.479Z,24.18
2023-05-05T15:06:38.010Z,24.54
2023-05-05T15:08:39.532Z,24.44
2023-05-05T15:10:41.174Z,24.39
2023-05-05T15:12:43.346Z,24.47
2023-05-05T15:14:44.870Z,25.60
2023-05-05T15:16:46.741Z,26.15
2023-05-05T15:18:48.488Z,26.13
2023-05-05T15:20:50.793Z,25.81
2023-05-05T15:22:52.825Z,26.10
2023-05-05T15:24:54.331Z,26.31
2023-05-05T15:26:56.260Z,25.18
2023-05-05T15:28:57.770Z,24.37
2023-05-05T15:31:02.069Z,23.21
2023-05-05T15:33:03.633Z,23.64
2023-05-05T15:35:06.091Z,23.62
2023-05-05T15:37:07.657Z,23.14
2023-05-05T15:39:09.673Z,23.48
2023-05-05T15:41:11.172Z,23.41
2023-05-05T15:43:12.858Z,23.47
2023-05-05T15:45:14.885Z,23.47
2023-05-05T15:47:16.652Z,22.47
2023-05-05T15:49:18.338Z,22.30
2023-05-05T15:51:19.940Z,22.52
2023-05-05T15:53:21.666Z,22.91
2023-05-05T15:55:24.536Z,22.65
2023-05-05T15:57:26.470Z,22.95
2023-05-05T15:59:27.992Z,22.25
2023-05-05T16:01:29.584Z,22.10
2023-05-05T16:03:31.196Z,22.33
2023-05-05T16:05:33.354Z,22.55
2023-05-05T16:07:34.925Z,22.67
2023-05-05T16:09:36.798Z,22.72
2023-05-05T16:11:38.389Z,22.86
2023-05-05T16:13:39.986Z,22.62
2023-05-05T16:15:41.522Z,22.06
2023-05-05T16:17:43.044Z,22.07
2023-05-05T16:19:44.744Z,22.22
2023-05-05T16:21:46.602Z,22.35
2023-05-05T16:23:48.171Z,22.31
2023-05-05T16:25:49.661Z,21.91
2023-05-05T16:27:51.858Z,22.14
2023-05-05T16:29:53.360Z,22.28
2023-05-05T16:31:55.012Z,22.38
2023-05-05T16:33:57.003Z,22.41
2023-05-05T16:35:58.509Z,22.51
2023-05-05T16:38:00.319Z,22.43
2023-05-05T16:40:05.996Z,22.47
2023-05-05T16:42:07.515Z,22.48
2023-05-05T16:44:09.099Z,22.18
2023-05-05T16:46:10.744Z,21.99
2023-05-05T16:48:13.672Z,21.61
2023-05-05T16:50:17.245Z,21.46
2023-05-05T16:52:18.875Z,21.44
2023-05-05T16:54:20.473Z,21.44
2023-05-05T16:56:21.972Z,21.31
2023-05-05T16:58:23.563Z,21.09
2023-05-05T17:00:25.609Z,21.11
2023-05-05T17:02:27.068Z,21.05
2023-05-05T17:04:28.613Z,20.93
2023-05-05T17:06:33.605Z,20.75
2023-05-05T17:08:35.130Z,20.60
2023-05-05T17:10:36.888Z,20.49
2023-05-05T17:12:38.416Z,20.54
2023-05-05T17:14:39.995Z,20.41
2023-05-05T17:16:41.544Z,20.50
2023-05-05T17:18:43.110Z,20.62
2023-05-05T17:20:44.680Z,20.36
2023-05-05T17:22:46.553Z,20.31
2023-05-05T17:24:48.063Z,20.23
2023-05-05T17:26:50.072Z,20.14
2023-05-05T17:28:51.714Z,20.09
2023-05-05T17:30:53.279Z,20.01
2023-05-05T17:32:54.834Z,20.01
2023-05-05T17:34:56.363Z,19.84
2023-05-05T17:36:57.907Z,19.80
2023-05-05T17:38:59.442Z,19.74
2023-05-05T17:41:01.104Z,19.69
2023-05-05T17:43:02.623Z,19.64
2023-05-05T17:45:04.908Z,19.69
2023-05-05T17:47:07.627Z,19.61
2023-05-05T17:49:09.137Z,19.52
2023-05-05T17:51:11.420Z,19.50
2023-05-05T17:53:13.134Z,19.40
2023-05-05T17:55:14.666Z,19.19
2023-05-05T17:57:18.102Z,18.88
2023-05-05T17:59:19.618Z,18.78
2023-05-05T18:01:25.811Z,18.77
2023-05-05T18:03:27.932Z,18.44
2023-05-05T18:05:30.253Z,18.34
2023-05-05T18:07:33.510Z,18.16
2023-05-05T18:09:36.038Z,18.06
2023-05-05T18:11:37.902Z,18.01
2023-05-05T18:13:39.853Z,17.84
2023-05-05T18:15:41.565Z,17.93
2023-05-05T18:17:43.688Z,17.90
2023-05-05T18:19:47.825Z,17.89
2023-05-05T18:21:52.513Z,17.89
2023-05-05T18:23:57.344Z,17.74
2023-05-05T18:26:03.405Z,17.63
2023-05-05T18:28:05.137Z,17.60
2023-05-05T18:30:07.768Z,17.56
2023-05-05T18:32:09.338Z,17.50
2023-05-05T18:34:10.861Z,17.46
2023-05-05T18:36:12.390Z,17.26
2023-05-05T18:38:13.912Z,17.23
2023-05-05T18:40:16.613Z,17.05
2023-05-05T18:42:18.990Z,16.89
2023-05-05T18:44:20.411Z,16.55
2023-05-05T18:46:22.451Z,16.51
2023-05-05T18:48:24.063Z,16.43
2023-05-05T18:50:26.114Z,16.42
2023-05-05T18:52:28.441Z,16.44
2023-05-05T18:54:30.457Z,16.49
2023-05-05T18:56:34.774Z,16.51
2023-05-05T18:58:36.254Z,16.46
2023-05-05T19:00:38.228Z,16.40
2023-05-05T19:02:39.779Z,16.39
2023-05-05T19:04:41.471Z,16.34
2023-05-05T19:06:43.177Z,16.35
2023-05-05T19:08:46.635Z,16.32
2023-05-05T19:10:48.187Z,16.29
2023-05-05T19:12:49.863Z,16.25
2023-05-05T19:14:51.697Z,16.25
2023-05-05T19:16:55.616Z,16.23
2023-05-05T19:18:59.540Z,16.20
2023-05-05T19:21:01.501Z,16.23
2023-05-05T19:23:04.435Z,16.14
2023-05-05T19:25:06.412Z,16.04
2023-05-05T19:29:15.993Z,16.05
2023-05-05T19:31:17.542Z,16.08
2023-05-05T19:33:19.114Z,16.08
2023-05-05T19:35:21.119Z,15.95
2023-05-05T19:37:22.652Z,15.88
2023-05-05T19:39:24.248Z,15.93
2023-05-05T19:41:25.862Z,15.95
2023-05-05T19:43:27.687Z,16.00
2023-05-05T19:45:29.552Z,16.02
2023-05-05T19:47:31.597Z,15.89
2023-05-05T19:49:33.385Z,15.87
2023-05-05T19:51:34.880Z,15.84
2023-05-05T19:53:36.717Z,15.75
2023-05-05T19:55:38.269Z,15.74
2023-05-05T19:57:40.525Z,15.84
2023-05-05T19:59:42.156Z,15.86
2023-05-05T20:01:43.767Z,15.59
2023-05-05T20:03:47.468Z,15.56
2023-05-05T20:05:49.898Z,15.70
2023-05-05T20:07:51.558Z,15.76
2023-05-05T20:09:53.219Z,15.77
2023-05-05T20:11:56.307Z,15.79
2023-05-05T20:13:58.688Z,15.76
2023-05-05T20:16:00.874Z,15.66
2023-05-05T20:18:02.472Z,15.63
2023-05-05T20:20:04.433Z,15.58
2023-05-05T20:22:06.761Z,15.60
2023-05-05T20:24:08.840Z,15.64
2023-05-05T20:26:11.491Z,15.67
2023-05-05T20:28:13.084Z,15.66
2023-05-05T20:30:14.726Z,15.51
2023-05-05T20:32:17.303Z,15.39
2023-05-05T20:34:18.846Z,15.28
2023-05-05T20:36:21.270Z,15.37
2023-05-05T20:38:23.052Z,15.21
2023-05-05T20:40:24.655Z,15.26
2023-05-05T20:42:27.597Z,15.24
2023-05-05T20:44:29.381Z,15.14
2023-05-05T20:46:31.608Z,15.06
2023-05-05T20:48:33.601Z,15.06
2023-05-05T20:50:38.681Z,15.05
2023-05-05T20:52:40.471Z,14.94
2023-05-05T20:54:42.024Z,14.92
2023-05-05T20:56:43.551Z,14.89
2023-05-05T20:58:45.121Z,14.75
2023-05-05T21:00:46.730Z,14.55
2023-05-05T21:02:48.924Z,14.51
2023-05-05T21:04:50.558Z,14.47
2023-05-05T21:06:52.122Z,14.46
2023-05-05T21:08:53.720Z,14.40
2023-05-05T21:10:55.258Z,14.34
2023-05-05T21:12:56.806Z,14.27
2023-05-05T21:14:59.449Z,14.23
2023-05-05T21:17:01.534Z,14.20
2023-05-05T21:19:03.162Z,14.21
2023-05-05T21:21:04.761Z,14.19
2023-05-05T21:23:06.312Z,14.20
2023-05-05T21:25:16.752Z,14.16
2023-05-05T21:27:18.398Z,13.98
2023-05-05T21:29:19.907Z,13.89
2023-05-05T21:31:22.681Z,13.81
2023-05-05T21:33:24.409Z,13.87
2023-05-05T21:35:26.048Z,13.99
2023-05-05T21:37:27.596Z,14.00
2023-05-05T21:39:33.109Z,14.07
2023-05-05T21:41:34.692Z,14.12
2023-05-05T21:43:36.504Z,14.06
2023-05-05T21:45:38.154Z,14.04
2023-05-05T21:47:40.310Z,13.99
2023-05-05T21:49:42.131Z,13.95
2023-05-05T21:51:44.678Z,13.98
2023-05-05T21:53:46.235Z,13.81
2023-05-05T21:55:49.052Z,13.81
2023-05-05T21:57:50.574Z,13.74
2023-05-05T21:59:52.076Z,13.79
2023-05-05T22:01:53.714Z,13.86
2023-05-05T22:03:55.807Z,13.82
2023-05-05T22:05:58.382Z,13.82
2023-05-05T22:08:00.353Z,13.78
2023-05-05T22:10:03.649Z,13.78
2023-05-05T22:12:05.600Z,13.83
2023-05-05T22:14:07.186Z,13.85
2023-05-05T22:16:09.849Z,13.82
2023-05-05T22:18:11.550Z,13.70
2023-05-05T22:20:13.557Z,13.64
2023-05-05T22:22:17.256Z,13.59
2023-05-05T22:24:18.983Z,13.65
2023-05-05T22:26:20.597Z,13.62
2023-05-05T22:28:22.231Z,13.54
2023-05-05T22:30:23.809Z,13.61
2023-05-05T22:32:25.679Z,13.53
2023-05-05T22:34:27.495Z,13.55
2023-05-05T22:36:29.146Z,13.50
2023-05-05T22:38:30.702Z,13.66
2023-05-05T22:40:32.752Z,13.60
2023-05-05T22:42:34.333Z,13.60
2023-05-05T22:44:36.175Z,13.48
2023-05-05T22:46:37.780Z,13.59
2023-05-05T22:48:39.884Z,13.59
2023-05-05T22:50:41.554Z,13.58
2023-05-05T22:52:43.106Z,13.48
2023-05-05T22:54:44.754Z,13.42
2023-05-05T22:56:46.461Z,13.49
2023-05-05T22:58:48.173Z,13.36
2023-05-05T23:00:49.752Z,13.38
2023-05-05T23:02:51.715Z,13.30
2023-05-05T23:04:53.409Z,13.29
2023-05-05T23:06:54.912Z,13.09
2023-05-05T23:08:56.424Z,13.04
2023-05-05T23:10:58.053Z,13.15
2023-05-05T23:12:59.659Z,13.10
2023-05-05T23:15:01.293Z,13.06
2023-05-05T23:17:03.429Z,12.97
2023-05-05T23:19:04.981Z,12.99
2023-05-05T23:21:07.267Z,12.99
2023-05-05T23:23:08.746Z,12.96
2023-05-05T23:25:10.477Z,12.99
2023-05-05T23:27:12.579Z,13.00
2023-05-05T23:29:14.409Z,12.98
2023-05-05T23:31:15.953Z,13.00
2023-05-05T23:33:17.517Z,12.88
2023-05-05T23:35:19.212Z,12.92
2023-05-05T23:37:20.901Z,12.98
2023-05-05T23:39:22.602Z,12.97
2023-05-05T23:41:24.160Z,13.01
2023-05-05T23:43:25.679Z,12.93
2023-05-05T23:45:27.514Z,12.97
2023-05-05T23:47:29.083Z,13.06
2023-05-05T23:49:30.715Z,13.02
2023-05-05T23:51:32.264Z,13.00
2023-05-05T23:53:34.006Z,13.08
2023-05-05T23:55:35.584Z,12.97
2023-05-05T23:57:37.261Z,12.94
2023-05-05T23:59:39.072Z,12.87
